Time;durP1;ratioP1;P1;durP2;ratioP2;P2;SDS_P1;SDS_P2;PMS_P1;PMS_P2;Temp;Humidity;BMP_temperature;BMP_pressure;BME280_temperature;BME280_humidity;BME280_pressure;Samples;Min_cycle;Max_cycle;Signal;HPM_P1;HPM_P2
2023/10/06 00:02:48;;;;;;;9.20;4.70;;;;;;;24.27;37.09;101323.06;103561;1288;74541;-80
2023/10/06 00:05:14;;;;;;;10.20;5.20;;;;;;;24.26;37.06;101323.63;103307;1288;62612;-81
2023/10/06 00:07:40;;;;;;;10.20;5.10;;;;;;;24.27;37.13;101326.67;103491;1288;61353;-81
2023/10/06 00:10:16;;;;;;;8.50;5.50;;;;;;;24.26;37.09;101324.00;103605;1289;61514;-81
2023/10/06 00:12:47;;;;;;;8.80;4.80;;;;;;;24.26;37.07;101320.04;103317;1286;65815;-81
2023/10/06 00:15:26;;;;;;;11.50;5.10;;;;;;;24.26;37.13;101322.38;103523;1290;62526;-80
2023/10/06 00:17:56;;;;;;;8.70;5.40;;;;;;;24.26;37.07;101322.21;103543;1290;61272;-81
2023/10/06 00:20:26;;;;;;;9.50;5.00;;;;;;;24.26;37.13;101327.96;103589;1289;72436;-80
2023/10/06 00:22:56;;;;;;;10.40;5.30;;;;;;;24.25;37.07;101331.05;103560;1286;73569;-81
2023/10/06 00:25:24;;;;;;;9.80;5.40;;;;;;;24.27;37.04;101333.17;103528;1291;61370;-81
2023/10/06 00:27:51;;;;;;;10.40;5.20;;;;;;;24.27;37.14;101327.94;103491;1286;61401;-81
2023/10/06 00:30:20;;;;;;;8.60;5.40;;;;;;;24.26;37.19;101325.27;103590;1287;72058;-80
2023/10/06 00:32:46;;;;;;;10.40;5.30;;;;;;;24.25;37.11;101328.55;103538;1286;65691;-81
2023/10/06 00:35:14;;;;;;;9.30;5.30;;;;;;;24.26;37.07;101330.31;103587;1287;61378;-81
2023/10/06 00:37:41;;;;;;;8.20;4.90;;;;;;;24.25;37.09;101327.64;103339;1288;61210;-81
2023/10/06 00:40:19;;;;;;;8.60;5.20;;;;;;;24.26;37.08;101329.60;103477;1287;61353;-81
2023/10/06 00:42:56;;;;;;;9.00;5.20;;;;;;;24.25;37.16;101323.52;103496;1288;74617;-81
2023/10/06 00:45:25;;;;;;;9.90;5.40;;;;;;;24.26;37.18;101318.30;103533;1290;61264;-81
2023/10/06 00:47:54;;;;;;;9.60;5.40;;;;;;;24.25;37.09;101319.03;103513;1286;61386;-80
2023/10/06 00:50:24;;;;;;;8.80;5.10;;;;;;;24.25;37.10;101320.88;103519;1287;72430;-81
2023/10/06 00:52:51;;;;;;;11.30;5.20;;;;;;;24.25;37.12;101319.59;103527;1288;74429;-81
2023/10/06 00:55:18;;;;;;;10.20;5.30;;;;;;;24.24;37.12;101321.25;103521;1286;61328;-80
2023/10/06 00:57:53;;;;;;;9.70;5.20;;;;;;;24.25;37.19;101320.87;103526;1289;61364;-81
2023/10/06 01:00:24;;;;;;;10.30;5.30;;;;;;;24.25;37.18;101324.48;103568;1290;72389;-81
2023/10/06 01:02:50;;;;;;;8.10;4.80;;;;;;;24.24;37.10;101322.16;103486;1290;74974;-81
2023/10/06 01:05:16;;;;;;;9.20;5.00;;;;;;;24.24;37.16;101321.46;103675;1286;61340;-80
2023/10/06 01:07:45;;;;;;;10.10;5.50;;;;;;;24.24;37.10;101321.63;103493;1289;61338;-80
2023/10/06 01:10:17;;;;;;;8.20;5.00;;;;;;;24.24;37.08;101320.75;103507;1290;63752;-80
2023/10/06 01:12:51;;;;;;;10.20;5.50;;;;;;;24.24;37.13;101321.28;103474;1286;65858;-82
2023/10/06 01:15:19;;;;;;;8.90;5.10;;;;;;;24.24;37.06;101323.79;103700;1287;61302;-80
2023/10/06 01:17:45;;;;;;;9.90;5.30;;;;;;;24.24;37.08;101331.70;103553;1287;62364;-80
2023/10/06 01:20:29;;;;;;;10.50;5.10;;;;;;;24.24;37.13;101332.23;103601;1287;61274;-80
2023/10/06 01:22:56;;;;;;;8.40;5.00;;;;;;;24.24;37.14;101332.96;103481;1286;74633;-79
2023/10/06 01:25:24;;;;;;;7.50;4.80;;;;;;;24.24;37.14;101332.27;103581;1287;61273;-80
2023/10/06 01:27:51;;;;;;;9.70;5.30;;;;;;;24.24;37.21;101328.50;103415;1287;61537;-80
2023/10/06 01:30:18;;;;;;;10.60;4.90;;;;;;;24.24;37.14;101327.93;103494;1288;61449;-80
2023/10/06 01:32:50;;;;;;;7.90;4.60;;;;;;;24.24;37.02;101325.95;103513;1286;62457;-80
2023/10/06 01:35:23;;;;;;;9.50;5.20;;;;;;;24.24;37.11;101324.89;103458;1287;61367;-80
2023/10/06 01:37:58;;;;;;;9.60;5.00;;;;;;;24.23;37.15;101324.38;103314;1292;61328;-80
2023/10/06 01:42:50;;;;;;;10.00;4.90;;;;;;;24.23;37.05;101318.13;103501;1290;61734;-80
2023/10/06 01:45:21;;;;;;;8.20;4.80;;;;;;;24.23;37.12;101321.14;103532;1288;61337;-81
2023/10/06 01:47:55;;;;;;;9.80;5.00;;;;;;;24.23;37.09;101320.42;103537;1291;61357;-81
2023/10/06 01:50:26;;;;;;;8.70;5.10;;;;;;;24.24;37.09;101323.84;103502;1287;72444;-81
2023/10/06 01:52:55;;;;;;;9.50;4.90;;;;;;;24.23;37.06;101324.02;103532;1288;74507;-81
2023/10/06 01:55:23;;;;;;;10.00;5.50;;;;;;;24.23;37.08;101321.34;103625;1288;61272;-80
2023/10/06 01:57:51;;;;;;;8.40;5.10;;;;;;;24.23;37.14;101320.63;103519;1286;61377;-81
2023/10/06 02:00:26;;;;;;;10.40;5.10;;;;;;;24.23;37.10;101321.36;103480;1289;72376;-82
2023/10/06 02:02:52;;;;;;;7.50;5.00;;;;;;;24.23;37.18;101323.48;103511;1287;74429;-80
2023/10/06 02:05:20;;;;;;;7.50;4.70;;;;;;;24.23;37.13;101327.66;103358;1288;62026;-80
2023/10/06 02:07:46;;;;;;;8.80;4.70;;;;;;;24.23;37.08;101325.31;103544;1287;61796;-80
2023/10/06 02:10:13;;;;;;;8.60;5.20;;;;;;;24.23;37.15;101325.27;103506;1288;61357;-80
2023/10/06 02:12:39;;;;;;;10.40;5.20;;;;;;;24.23;37.06;101322.80;103611;1288;65786;-80
2023/10/06 02:15:10;;;;;;;7.90;4.90;;;;;;;24.23;37.09;101325.15;103584;1289;61398;-80
2023/10/06 02:17:40;;;;;;;10.00;5.40;;;;;;;24.22;37.05;101330.22;103236;1288;61788;-81
2023/10/06 02:22:52;;;;;;;7.60;4.80;;;;;;;24.22;37.05;101339.58;103706;1286;74280;-81
2023/10/06 02:25:18;;;;;;;8.00;4.90;;;;;;;24.22;37.07;101338.52;103582;1288;61285;-80
2023/10/06 02:27:46;;;;;;;8.30;4.60;;;;;;;24.22;37.13;101337.08;103521;1291;61401;-80
2023/10/06 02:30:15;;;;;;;8.80;4.80;;;;;;;24.22;37.07;101335.13;103363;1293;72437;-82
2023/10/06 02:32:43;;;;;;;9.00;5.00;;;;;;;24.22;37.07;101337.13;103541;1287;74380;-80
2023/10/06 02:35:09;;;;;;;12.90;5.10;;;;;;;24.21;37.07;101333.00;103523;1291;61378;-80
2023/10/06 02:37:35;;;;;;;8.40;5.00;;;;;;;24.22;37.04;101334.40;103496;1288;62470;-80
2023/10/06 02:40:00;;;;;;;8.80;5.20;;;;;;;24.22;37.11;101335.52;103587;1291;61377;-81
2023/10/06 02:42:26;;;;;;;9.30;4.70;;;;;;;24.21;37.14;101334.79;103603;1288;61419;-81
2023/10/06 02:44:53;;;;;;;8.60;4.90;;;;;;;24.22;37.07;101338.74;103588;1288;61448;-81
2023/10/06 02:47:20;;;;;;;9.90;5.10;;;;;;;24.21;37.13;101337.66;103534;1288;61720;-81
2023/10/06 02:49:55;;;;;;;10.30;5.30;;;;;;;24.22;37.13;101343.05;103528;1288;62375;-80
2023/10/06 02:52:29;;;;;;;8.80;4.90;;;;;;;24.21;37.05;101341.31;103692;1287;65870;-81
2023/10/06 02:55:06;;;;;;;11.50;4.80;;;;;;;24.20;36.96;101340.09;103415;1288;61301;-81
2023/10/06 02:57:35;;;;;;;8.60;4.80;;;;;;;24.21;36.94;101342.93;103557;1288;62085;-81
2023/10/06 03:00:28;;;;;;;;;;;;;;;24.21;37.04;101339.52;103600;1287;63972;-81
2023/10/06 03:02:48;;;;;;;7.40;4.50;;;;;;;24.18;37.13;101340.06;103536;1286;65851;-81
2023/10/06 03:05:14;;;;;;;9.10;4.90;;;;;;;24.19;37.08;101343.41;103151;1289;61406;-81
2023/10/06 03:07:45;;;;;;;8.90;5.30;;;;;;;24.19;37.03;101338.59;103077;1288;61398;-81
2023/10/06 03:10:30;;;;;;;8.20;4.80;;;;;;;24.19;37.09;101339.31;103512;1289;63999;-81
2023/10/06 03:12:57;;;;;;;8.10;4.70;;;;;;;24.19;37.08;101338.06;103584;1288;65701;-81
2023/10/06 03:15:33;;;;;;;10.80;4.90;;;;;;;24.19;37.00;101338.95;103526;1288;61373;-80
2023/10/06 03:17:59;;;;;;;8.90;5.20;;;;;;;24.19;37.05;101342.70;103072;1288;378086;-80
2023/10/06 03:20:46;;;;;;;8.00;5.10;;;;;;;24.19;37.01;101342.71;103511;1288;61733;-80
2023/10/06 03:23:26;;;;;;;7.30;4.70;;;;;;;24.19;37.07;101340.94;103658;1287;65987;-80
2023/10/06 03:25:56;;;;;;;7.90;4.70;;;;;;;24.19;37.05;101342.17;103634;1287;61404;-80
2023/10/06 03:28:49;;;;;;;9.70;4.90;;;;;;;24.19;37.00;101344.52;103503;1287;61716;-80
2023/10/06 03:33:46;;;;;;;7.60;4.90;;;;;;;24.19;36.93;101346.33;103469;1287;65793;-80
2023/10/06 03:36:15;;;;;;;9.20;5.00;;;;;;;24.19;36.97;101343.79;103540;1288;61315;-80
2023/10/06 03:39:05;;;;;;;10.40;5.00;;;;;;;24.20;36.98;101342.29;103367;1288;61333;-80
2023/10/06 03:41:32;;;;;;;11.30;5.70;;;;;;;24.19;37.01;101343.44;103325;1289;62736;-80
2023/10/06 03:44:03;;;;;;;9.40;4.80;;;;;;;24.19;37.10;101345.05;103563;1288;74277;-80
2023/10/06 03:46:36;;;;;;;7.10;4.70;;;;;;;24.19;37.04;101349.52;103560;1287;61264;-80
2023/10/06 03:49:04;;;;;;;9.00;5.20;;;;;;;24.19;37.08;101350.11;103431;1288;61331;-79
2023/10/06 03:51:33;;;;;;;10.50;5.00;;;;;;;24.19;36.94;101354.94;103533;1287;63750;-82
2023/10/06 03:53:59;;;;;;;8.50;4.70;;;;;;;24.19;37.07;101359.98;103553;1288;74449;-79
2023/10/06 03:56:25;;;;;;;9.80;4.90;;;;;;;24.19;37.02;101359.06;103544;1286;61360;-80
2023/10/06 03:58:51;;;;;;;11.80;5.50;;;;;;;24.19;36.96;101363.61;103750;1287;61411;-80
2023/10/06 04:01:19;;;;;;;15.30;6.20;;;;;;;24.18;36.97;101368.72;103688;1288;62368;-80
2023/10/06 04:03:47;;;;;;;15.80;6.90;;;;;;;24.16;37.06;101367.75;103602;1288;62302;-80
2023/10/06 04:06:15;;;;;;;17.30;6.20;;;;;;;24.15;37.02;101370.03;103659;1288;61381;-80
2023/10/06 04:08:44;;;;;;;23.20;6.20;;;;;;;24.12;36.95;101372.74;103679;1286;61388;-81
2023/10/06 04:11:14;;;;;;;17.40;7.00;;;;;;;24.11;36.98;101374.10;103511;1288;72400;-81
2023/10/06 04:13:43;;;;;;;19.10;6.50;;;;;;;24.09;36.89;101374.96;103568;1286;65837;-81
2023/10/06 04:16:09;;;;;;;13.00;6.60;;;;;;;24.07;36.88;101376.89;103565;1286;61363;-81
2023/10/06 04:18:34;;;;;;;14.60;6.70;;;;;;;24.05;36.97;101375.92;103489;1288;61483;-81
2023/10/06 04:21:03;;;;;;;12.80;6.30;;;;;;;24.04;36.91;101377.30;103544;1288;61358;-83
2023/10/06 04:23:29;;;;;;;16.20;6.80;;;;;;;24.03;36.89;101376.67;103648;1286;74445;-80
2023/10/06 04:25:57;;;;;;;17.20;6.70;;;;;;;24.01;36.95;101378.11;103506;1289;61405;-80
2023/10/06 04:28:26;;;;;;;;;;;;;;;24.00;37.09;101380.66;103520;1287;61264;-81
2023/10/06 04:30:53;;;;;;;22.80;7.00;;;;;;;23.96;37.17;101383.84;103484;1288;63987;-80
2023/10/06 04:33:19;;;;;;;15.50;6.60;;;;;;;23.94;37.21;101391.14;103484;1288;65781;-80
2023/10/06 04:35:52;;;;;;;17.50;7.10;;;;;;;23.93;37.29;101396.07;103637;1288;61549;-81
2023/10/06 04:38:19;;;;;;;21.50;6.90;;;;;;;23.92;37.18;101395.59;103432;1288;61424;-79
2023/10/06 04:40:46;;;;;;;15.60;6.30;;;;;;;23.92;37.12;101397.56;103447;1288;61267;-80
2023/10/06 04:43:17;;;;;;;14.90;6.10;;;;;;;23.93;37.16;101405.97;103812;1289;65937;-82
2023/10/06 04:45:47;;;;;;;20.80;6.60;;;;;;;23.93;37.13;101410.30;104057;1288;61293;-80
2023/10/06 04:48:15;;;;;;;18.10;6.30;;;;;;;23.92;37.19;101416.05;103953;1288;62328;-80
2023/10/06 04:50:44;;;;;;;12.80;6.90;;;;;;;23.92;37.13;101420.58;104109;1288;63851;-80
2023/10/06 04:53:11;;;;;;;18.80;6.60;;;;;;;23.93;37.14;101419.84;104259;1288;65868;-80
2023/10/06 04:55:40;;;;;;;13.20;6.50;;;;;;;23.92;37.15;101422.92;104292;1288;61188;-80
2023/10/06 04:58:13;;;;;;;14.10;7.10;;;;;;;23.93;37.15;101429.33;104250;1288;61291;-80
2023/10/06 05:00:39;;;;;;;15.40;6.60;;;;;;;23.94;37.12;101434.13;104691;1286;72513;-80
2023/10/06 05:03:06;;;;;;;18.10;6.30;;;;;;;23.93;37.05;101440.26;104772;1292;74227;-81
2023/10/06 05:05:38;;;;;;;18.30;6.50;;;;;;;23.94;37.08;101447.25;104739;1288;61960;-81
2023/10/06 05:08:04;;;;;;;19.70;6.90;;;;;;;23.91;37.06;101457.85;104930;1289;61266;-79
2023/10/06 05:10:31;;;;;;;16.90;7.20;;;;;;;23.91;37.11;101465.45;104705;1292;59260;-81
2023/10/06 05:13:02;;;;;;;19.40;6.40;;;;;;;23.91;37.28;101469.56;104651;1286;74367;-80
2023/10/06 05:15:30;;;;;;;14.80;7.00;;;;;;;23.92;37.16;101470.20;105097;1288;61295;-80
2023/10/06 05:17:56;;;;;;;13.20;6.70;;;;;;;23.91;37.06;101471.89;104640;1288;61424;-80
2023/10/06 05:20:29;;;;;;;13.80;6.60;;;;;;;23.88;37.01;101471.02;104694;1288;61380;-81
2023/10/06 05:23:07;;;;;;;14.60;7.00;;;;;;;23.88;37.02;101477.34;104382;1293;74202;-79
2023/10/06 05:25:33;;;;;;;17.00;6.80;;;;;;;23.86;37.05;101484.30;105566;1288;60215;-80
2023/10/06 05:27:59;;;;;;;15.20;6.90;;;;;;;23.85;37.04;101487.92;104486;1288;61257;-80
2023/10/06 05:30:31;;;;;;;15.00;6.10;;;;;;;23.83;36.98;101486.48;104603;1287;61406;-80
2023/10/06 05:33:03;;;;;;;15.90;6.80;;;;;;;23.82;36.99;101486.24;104662;1288;73568;-80
2023/10/06 05:35:38;;;;;;;16.40;6.50;;;;;;;23.77;36.96;101484.05;104570;1286;61382;-82
2023/10/06 05:38:08;;;;;;;18.10;6.30;;;;;;;23.74;37.05;101478.27;104646;1288;61353;-80
2023/10/06 05:40:36;;;;;;;20.20;6.30;;;;;;;23.74;37.03;101479.02;104434;1287;72378;-80
2023/10/06 05:43:04;;;;;;;19.80;6.40;;;;;;;23.73;36.98;101478.75;104312;1286;74411;-80
2023/10/06 05:45:30;;;;;;;20.10;6.30;;;;;;;23.72;37.06;101487.48;104518;1288;60109;-80
2023/10/06 05:47:58;;;;;;;19.10;6.70;;;;;;;23.71;36.94;101490.20;104573;1287;62051;-81
2023/10/06 05:50:28;;;;;;;16.70;6.10;;;;;;;23.72;36.96;101493.56;104754;1289;63666;-80
2023/10/06 05:53:07;;;;;;;20.30;6.70;;;;;;;23.72;36.92;101500.38;104751;1288;74282;-80
2023/10/06 05:55:37;;;;;;;21.00;7.00;;;;;;;23.64;36.97;101500.59;104709;1288;61176;-80
2023/10/06 05:58:19;;;;;;;16.90;6.50;;;;;;;23.61;36.98;101507.98;105545;1286;61229;-82
2023/10/06 06:00:52;;;;;;;20.40;6.70;;;;;;;23.64;37.11;101512.67;104611;1287;72218;-82
2023/10/06 06:03:21;;;;;;;22.00;6.90;;;;;;;23.64;37.17;101514.93;104480;1288;65469;-81
2023/10/06 06:05:52;;;;;;;18.30;6.80;;;;;;;23.62;37.11;101514.93;104894;1288;61405;-81
2023/10/06 06:08:18;;;;;;;19.70;6.60;;;;;;;23.58;37.17;101514.65;106232;1287;59968;-80
2023/10/06 06:10:45;;;;;;;13.30;6.50;;;;;;;23.59;37.19;101519.43;106235;1288;58819;-79
2023/10/06 06:13:13;;;;;;;14.50;6.40;;;;;;;23.60;37.19;101519.38;104467;1289;74413;-79
2023/10/06 06:15:40;;;;;;;15.50;6.20;;;;;;;23.60;37.19;101522.58;104202;1288;61234;-78
2023/10/06 06:18:08;;;;;;;20.00;6.10;;;;;;;23.60;37.13;101527.81;104662;1288;61169;-80
2023/10/06 06:20:38;;;;;;;14.50;6.30;;;;;;;23.61;37.10;101528.11;104211;1286;72854;-78
2023/10/06 06:23:08;;;;;;;14.10;6.20;;;;;;;23.61;36.99;101530.61;104569;1288;74281;-80
2023/10/06 06:25:36;;;;;;;14.90;6.60;;;;;;;23.60;37.06;101535.90;105599;1287;61356;-80
2023/10/06 06:28:01;;;;;;;16.10;6.10;;;;;;;23.60;36.91;101537.17;104508;1288;61270;-79
2023/10/06 06:30:29;;;;;;;14.70;6.20;;;;;;;23.60;36.95;101532.48;104752;1289;61389;-80
2023/10/06 06:32:57;;;;;;;11.30;5.90;;;;;;;23.60;36.88;101538.08;104732;1287;65768;-79
2023/10/06 06:35:23;;;;;;;10.90;5.80;;;;;;;23.61;36.74;101543.38;104751;1288;61340;-80
2023/10/06 06:37:59;;;;;;;15.90;5.60;;;;;;;23.60;36.82;101544.86;104380;1287;61443;-79
2023/10/06 06:40:26;;;;;;;14.30;5.90;;;;;;;23.61;36.66;101547.67;104727;1287;72598;-80
2023/10/06 06:42:52;;;;;;;12.90;5.50;;;;;;;23.62;36.70;101548.53;105018;1288;74381;-80
2023/10/06 06:45:18;;;;;;;14.10;5.60;;;;;;;23.63;36.62;101546.88;104721;1290;61358;-80
2023/10/06 06:47:43;;;;;;;17.00;5.70;;;;;;;23.63;36.60;101546.85;104776;1288;61131;-80
2023/10/06 06:50:13;;;;;;;14.00;5.70;;;;;;;23.63;36.55;101557.08;104834;1288;61075;-82
2023/10/06 06:52:39;;;;;;;15.60;6.10;;;;;;;23.57;36.39;101563.95;104897;1288;75255;-81
2023/10/06 06:55:12;;;;;;;17.30;6.50;;;;;;;23.50;36.36;101562.31;104918;1288;59304;-81
2023/10/06 06:57:45;;;;;;;19.30;6.40;;;;;;;23.39;36.36;101563.74;104800;1287;61179;-81
2023/10/06 07:00:24;;;;;;;15.20;5.50;;;;;;;23.37;36.55;101562.86;104908;1288;72915;-81
2023/10/06 07:02:50;;;;;;;15.60;5.90;;;;;;;23.34;36.51;101562.48;105105;1288;74552;-82
2023/10/06 07:05:17;;;;;;;22.20;6.00;;;;;;;23.35;36.46;101562.98;105053;1288;61367;-81
2023/10/06 07:07:43;;;;;;;30.00;6.50;;;;;;;23.33;36.44;101564.73;105372;1288;61285;-81
2023/10/06 07:10:15;;;;;;;27.50;7.20;;;;;;;23.29;36.39;101562.84;105113;1287;61264;-80
2023/10/06 07:12:42;;;;;;;20.90;6.50;;;;;;;23.28;36.42;101565.06;104849;1288;74751;-79
2023/10/06 07:15:14;;;;;;;19.50;6.70;;;;;;;23.31;36.42;101568.29;104889;1291;61478;-80
2023/10/06 07:17:50;;;;;;;18.40;6.00;;;;;;;23.36;36.41;101568.87;104959;1288;61181;-80
2023/10/06 07:20:17;;;;;;;15.30;6.30;;;;;;;23.40;36.38;101570.92;104526;1288;72383;-79
2023/10/06 07:22:46;;;;;;;18.20;6.20;;;;;;;23.43;36.43;101573.74;104762;1287;65973;-80
2023/10/06 07:25:16;;;;;;;16.60;6.20;;;;;;;23.47;36.41;101575.48;104758;1288;60049;-82
2023/10/06 07:27:43;;;;;;;;;;;;;;;23.50;36.32;101573.46;104842;1287;61286;-79
2023/10/06 07:30:18;;;;;;;13.90;5.60;;;;;;;23.49;36.38;101573.71;104985;1287;72829;-80
2023/10/06 07:32:44;;;;;;;13.10;5.50;;;;;;;23.51;36.41;101578.97;104620;1288;73392;-80
2023/10/06 07:35:30;;;;;;;14.10;5.90;;;;;;;23.50;36.42;101579.59;104680;1287;61300;-79
2023/10/06 07:37:56;;;;;;;10.90;5.80;;;;;;;23.47;36.47;101575.07;104710;1287;61202;-80
2023/10/06 07:40:22;;;;;;;13.40;6.00;;;;;;;23.46;36.53;101576.45;104771;1288;61389;-80
2023/10/06 07:42:49;;;;;;;12.50;5.60;;;;;;;23.48;36.64;101581.13;104793;1287;59260;-80
2023/10/06 07:45:15;;;;;;;12.40;6.20;;;;;;;23.49;36.72;101579.61;104750;1287;59281;-80
2023/10/06 07:47:42;;;;;;;11.20;6.00;;;;;;;23.49;36.72;101580.17;104584;1287;61219;-79
2023/10/06 07:50:09;;;;;;;14.70;6.50;;;;;;;23.49;36.77;101580.30;104793;1288;59405;-78
2023/10/06 07:52:39;;;;;;;11.90;6.30;;;;;;;23.48;36.66;101582.01;104882;1292;62042;-81
2023/10/06 07:55:05;;;;;;;17.30;6.60;;;;;;;23.45;36.80;101582.41;104967;1288;60153;-82
2023/10/06 07:57:33;;;;;;;23.30;7.20;;;;;;;23.40;36.79;101580.73;105098;1286;61297;-80
2023/10/06 07:59:59;;;;;;;12.90;6.50;;;;;;;23.36;36.83;101586.80;104972;1288;72516;-81
2023/10/06 08:02:29;;;;;;;18.50;6.70;;;;;;;23.33;36.98;101584.50;104976;1288;74383;-79
2023/10/06 08:04:55;;;;;;;19.40;6.60;;;;;;;23.35;37.09;101586.91;104952;1287;61322;-81
2023/10/06 08:07:26;;;;;;;13.20;6.40;;;;;;;23.38;37.05;101586.49;105023;1287;61373;-79
2023/10/06 08:09:59;;;;;;;17.00;6.10;;;;;;;23.40;37.19;101585.63;106027;1288;72442;-81
2023/10/06 08:12:27;;;;;;;14.20;5.60;;;;;;;23.42;37.11;101588.00;106165;1287;74094;-79
2023/10/06 08:14:54;;;;;;;13.10;6.50;;;;;;;23.44;36.92;101584.10;106161;1288;59956;-80
2023/10/06 08:17:20;;;;;;;12.90;5.90;;;;;;;23.47;36.91;101581.56;106202;1288;60271;-80
2023/10/06 08:19:46;;;;;;;11.50;5.60;;;;;;;23.49;36.92;101584.08;106112;1288;58848;-80
2023/10/06 08:22:15;;;;;;;13.10;5.70;;;;;;;23.49;36.78;101578.00;106149;1288;59960;-81
2023/10/06 08:24:43;;;;;;;12.30;5.60;;;;;;;23.50;36.69;101578.48;106222;1288;60020;-81
2023/10/06 08:27:08;;;;;;;12.40;5.50;;;;;;;23.53;36.62;101579.17;106234;1287;59999;-82
2023/10/06 08:29:34;;;;;;;11.60;5.70;;;;;;;23.56;36.52;101578.55;106152;1288;59054;-81
2023/10/06 08:31:59;;;;;;;14.80;5.80;;;;;;;23.61;36.57;101579.70;106118;1287;59068;-81
2023/10/06 08:34:27;;;;;;;9.00;4.80;;;;;;;23.63;36.53;101581.33;106197;1288;59174;-80
2023/10/06 08:36:53;;;;;;;14.10;5.60;;;;;;;23.66;36.47;101586.52;106187;1288;59442;-82
2023/10/06 08:39:20;;;;;;;9.70;5.60;;;;;;;23.69;36.33;101585.73;106191;1287;58930;-82
2023/10/06 08:41:46;;;;;;;14.20;5.80;;;;;;;23.69;36.24;101580.06;105362;1292;61427;-81
2023/10/06 08:44:14;;;;;;;11.80;5.30;;;;;;;23.68;36.24;101579.00;104698;1288;61287;-79
2023/10/06 08:46:44;;;;;;;14.70;5.20;;;;;;;23.68;36.13;101585.48;104888;1288;59048;-79
2023/10/06 08:49:11;;;;;;;11.10;5.50;;;;;;;23.68;36.07;101581.73;106048;1291;72637;-80
2023/10/06 08:51:37;;;;;;;11.20;5.30;;;;;;;23.67;35.96;101581.42;105996;1288;74595;-82
2023/10/06 08:54:04;;;;;;;36.10;5.90;;;;;;;23.67;35.98;101581.61;106069;1292;58905;-80
2023/10/06 08:56:33;;;;;;;28.20;5.80;;;;;;;23.69;36.09;101581.84;105781;1288;60050;-80
2023/10/06 08:59:00;;;;;;;13.30;5.00;;;;;;;23.72;36.03;101586.44;105848;1287;72908;-80
2023/10/06 09:01:28;;;;;;;12.90;4.80;;;;;;;23.73;36.04;101586.77;105842;1287;74983;-81
2023/10/06 09:03:55;;;;;;;14.40;5.40;;;;;;;23.68;35.80;101589.78;105932;1288;59509;-79
2023/10/06 09:06:20;;;;;;;11.90;5.40;;;;;;;23.65;35.79;101590.18;106013;1287;60223;-81
2023/10/06 09:08:49;;;;;;;13.40;5.40;;;;;;;23.63;35.69;101588.89;106010;1288;58827;-81
2023/10/06 09:11:15;;;;;;;11.30;5.00;;;;;;;23.61;35.64;101591.52;105983;1287;74904;-80
2023/10/06 09:13:41;;;;;;;11.80;5.40;;;;;;;23.62;35.71;101588.80;106099;1287;59937;-82
2023/10/06 09:16:08;;;;;;;11.80;5.40;;;;;;;23.64;35.69;101593.15;106059;1288;59616;-79
2023/10/06 09:18:35;;;;;;;10.80;5.30;;;;;;;23.65;35.63;101588.19;106037;1287;73614;-80
2023/10/06 09:21:19;;;;;;;13.30;5.10;;;;;;;23.66;35.58;101591.16;106169;1287;59825;-79
2023/10/06 09:23:45;;;;;;;9.80;5.30;;;;;;;23.68;35.54;101588.73;105993;1286;60152;-81
2023/10/06 09:26:12;;;;;;;15.80;5.00;;;;;;;23.70;35.53;101588.55;106024;1290;58875;-80
2023/10/06 09:29:09;;;;;;;14.10;5.80;;;;;;;23.74;35.59;101591.54;105990;1288;59346;-80
2023/10/06 09:31:44;;;;;;;17.50;5.90;;;;;;;23.75;35.61;101590.54;105564;1292;73183;-79
2023/10/06 09:34:11;;;;;;;12.60;5.30;;;;;;;23.76;35.48;101587.08;105531;1295;61223;-79
2023/10/06 09:36:38;;;;;;;18.10;4.90;;;;;;;23.79;35.50;101591.21;104657;1294;61303;-81
2023/10/06 09:39:13;;;;;;;13.60;4.90;;;;;;;23.80;35.47;101587.37;104388;1294;72327;-81
2023/10/06 09:41:39;;;;;;;10.90;4.80;;;;;;;23.78;35.28;101589.84;105630;1293;74273;-79
2023/10/06 09:44:08;;;;;;;10.50;4.90;;;;;;;23.74;35.15;101589.16;105764;1292;59146;-79
2023/10/06 09:46:34;;;;;;;;;;;;;;;23.70;35.01;101586.25;105566;1292;60424;-79
2023/10/06 09:48:59;;;;;;;13.70;5.20;;;;;;;23.67;35.01;101586.67;105727;1293;58955;-80
2023/10/06 09:51:27;;;;;;;14.80;4.60;;;;;;;23.68;35.00;101583.85;105448;1293;59735;-78
2023/10/06 09:53:53;;;;;;;14.60;5.10;;;;;;;23.70;35.03;101582.61;104016;1298;61500;-79
2023/10/06 09:56:20;;;;;;;9.70;5.00;;;;;;;23.73;35.04;101575.80;103673;1298;62384;-78
2023/10/06 09:58:51;;;;;;;15.10;4.80;;;;;;;23.76;35.08;101571.60;104095;1292;59439;-80
2023/10/06 10:01:17;;;;;;;16.80;5.40;;;;;;;23.79;35.08;101575.39;104326;1294;74408;-79
2023/10/06 10:03:42;;;;;;;17.60;5.20;;;;;;;23.79;35.03;101570.54;104581;1292;59295;-81
2023/10/06 10:06:09;;;;;;;11.90;4.50;;;;;;;23.80;35.08;101560.61;104454;1294;61454;-82
2023/10/06 10:08:35;;;;;;;12.50;4.50;;;;;;;23.80;35.00;101557.52;104638;1291;59262;-79
2023/10/06 10:11:06;;;;;;;18.10;4.80;;;;;;;23.77;35.00;101556.08;106040;1288;61193;-82
2023/10/06 10:13:50;;;;;;;13.70;4.60;;;;;;;23.76;34.86;101550.08;106058;1287;59927;-81
2023/10/06 10:16:42;;;;;;;12.40;4.80;;;;;;;23.77;34.99;101547.84;105437;1288;59840;-79
2023/10/06 10:19:11;;;;;;;14.00;5.00;;;;;;;23.78;34.96;101542.36;104845;1287;72772;-81
2023/10/06 10:21:37;;;;;;;11.90;5.00;;;;;;;23.82;35.09;101535.96;105314;1288;74401;-79
2023/10/06 10:24:05;;;;;;;11.60;4.80;;;;;;;23.78;34.72;101534.61;104954;1288;59699;-79
2023/10/06 10:26:36;;;;;;;14.30;4.70;;;;;;;23.69;34.47;101532.94;104888;1288;61378;-81
2023/10/06 10:29:15;;;;;;;12.10;4.90;;;;;;;23.64;34.39;101525.39;104675;1288;72889;-80
2023/10/06 10:31:48;;;;;;;15.00;5.00;;;;;;;23.67;34.45;101521.40;104617;1292;75215;-79
2023/10/06 10:34:20;;;;;;;20.30;5.10;;;;;;;23.70;34.43;101514.55;104608;1288;61256;-80
2023/10/06 10:37:05;;;;;;;16.20;5.10;;;;;;;23.70;34.30;101512.95;104894;1288;61471;-79
2023/10/06 10:39:49;;;;;;;14.50;4.90;;;;;;;23.72;34.55;101506.82;104369;1292;63798;-81
2023/10/06 10:42:18;;;;;;;16.60;4.70;;;;;;;23.75;34.52;101510.42;104322;1287;73624;-80
2023/10/06 10:44:48;;;;;;;11.90;4.90;;;;;;;23.76;34.46;101506.58;104647;1288;61337;-79
2023/10/06 10:47:15;;;;;;;11.70;4.70;;;;;;;23.79;34.39;101506.36;104685;1291;61272;-79
2023/10/06 10:49:44;;;;;;;10.60;4.50;;;;;;;23.81;34.40;101507.45;104504;1292;72452;-79
2023/10/06 10:52:10;;;;;;;;;;;;;;;23.83;34.23;101512.03;104529;1288;74259;-80
2023/10/06 10:54:37;;;;;;;15.30;4.40;;;;;;;23.82;34.33;101511.04;104529;1291;59724;-80
2023/10/06 10:57:09;;;;;;;18.50;4.50;;;;;;;23.84;34.18;101510.64;104421;1294;61380;-79
2023/10/06 11:00:00;;;;;;;24.30;5.20;;;;;;;23.88;34.20;101510.20;104691;1287;72566;-83
2023/10/06 11:03:16;;;;;;;13.30;5.30;;;;;;;23.92;34.35;101514.42;105224;1286;74502;-81
2023/10/06 11:05:41;;;;;;;16.00;4.90;;;;;;;23.96;34.40;101507.37;104743;1294;61166;-80
2023/10/06 11:08:07;;;;;;;19.90;5.10;;;;;;;23.98;34.38;101505.91;104881;1294;59382;-82
2023/10/06 11:10:38;;;;;;;11.10;4.80;;;;;;;23.99;34.32;101506.95;104606;1294;64177;-81
2023/10/06 11:13:18;;;;;;;11.20;4.90;;;;;;;23.99;34.25;101508.20;104851;1295;73713;-80
2023/10/06 11:15:43;;;;;;;11.00;4.70;;;;;;;23.99;34.15;101510.02;104866;1295;60175;-82
2023/10/06 11:18:18;;;;;;;14.00;4.80;;;;;;;23.98;33.97;101505.42;104496;1295;61384;-80
2023/10/06 11:20:46;;;;;;;13.00;4.70;;;;;;;23.96;33.80;101509.28;104357;1294;72106;-80
2023/10/06 11:23:11;;;;;;;15.10;4.50;;;;;;;23.93;33.74;101508.77;104647;1294;74362;-79
2023/10/06 11:25:46;;;;;;;7.80;4.50;;;;;;;23.91;33.63;101512.70;104436;1295;61270;-80
2023/10/06 11:28:12;;;;;;;13.70;4.30;;;;;;;23.91;33.70;101515.77;104231;1295;61384;-80
2023/10/06 11:30:43;;;;;;;14.30;4.60;;;;;;;23.91;33.56;101518.27;104183;1295;63934;-79
2023/10/06 11:33:11;;;;;;;11.90;4.40;;;;;;;23.91;33.49;101519.91;104022;1297;61577;-81